createdAt,value
2018-04-25T00:00:48.290Z,95.89
2018-04-25T00:01:48.202Z,96.18
2018-04-25T00:03:41.475Z,95.89
2018-04-25T00:04:41.413Z,95.89
2018-04-25T00:06:34.811Z,95.41
2018-04-25T00:07:34.624Z,95.41
2018-04-25T00:09:27.901Z,95.70
2018-04-25T00:10:27.838Z,95.41
2018-04-25T00:12:21.132Z,95.41
2018-04-25T00:13:21.049Z,95.61
2018-04-25T00:15:14.343Z,95.51
2018-04-25T00:16:14.263Z,95.70
2018-04-25T00:18:07.535Z,95.89
2018-04-25T00:19:07.469Z,95.89
2018-04-25T00:21:00.766Z,96.27
2018-04-25T00:22:00.681Z,96.27
2018-04-25T00:23:53.955Z,96.27
2018-04-25T00:24:53.891Z,96.08
2018-04-25T00:26:47.184Z,96.08
2018-04-25T00:27:47.102Z,96.27
2018-04-25T00:29:40.376Z,96.66
2018-04-25T00:30:40.312Z,96.37
2018-04-25T00:32:33.607Z,96.56
2018-04-25T00:33:33.522Z,96.94
2018-04-25T00:35:26.814Z,96.66
2018-04-25T00:36:26.732Z,96.66
2018-04-25T00:38:20.010Z,97.23
2018-04-25T00:39:19.946Z,97.04
2018-04-25T00:41:13.243Z,97.42
2018-04-25T00:42:13.154Z,97.71
2018-04-25T00:44:06.429Z,97.61
2018-04-25T00:45:06.364Z,97.52
2018-04-25T00:46:59.649Z,97.80
2018-04-25T00:47:59.567Z,97.90
2018-04-25T00:49:52.841Z,97.80
2018-04-25T00:50:52.778Z,97.90
2018-04-25T00:52:46.071Z,98.85
2018-04-25T00:53:45.991Z,98.85
2018-04-25T00:55:39.390Z,98.57
2018-04-25T00:56:39.254Z,98.57
2018-04-25T00:58:33.527Z,98.66
2018-04-25T00:59:33.469Z,98.95
2018-04-25T01:01:26.758Z,98.75
2018-04-25T01:02:26.675Z,98.66
2018-04-25T01:04:19.949Z,99.52
2018-04-25T01:05:19.884Z,99.33
2018-04-25T01:07:13.169Z,99.14
2018-04-25T01:08:13.089Z,99.33
2018-04-25T01:10:06.361Z,99.43
2018-04-25T01:11:06.305Z,99.24
2018-04-25T01:12:59.703Z,99.43
2018-04-25T01:13:59.509Z,99.24
2018-04-25T01:15:52.804Z,99.04
2018-04-25T01:16:52.720Z,99.24
2018-04-25T01:18:45.994Z,99.33
2018-04-25T01:19:45.933Z,99.62
2018-04-25T01:21:39.227Z,99.90
2018-04-25T01:22:39.148Z,99.71
2018-04-25T01:24:32.419Z,99.71
2018-04-25T01:25:32.355Z,99.43
2018-04-25T01:27:25.644Z,99.43
2018-04-25T01:28:25.557Z,99.14
2018-04-25T01:30:18.937Z,99.71
2018-04-25T01:31:18.768Z,99.99
2018-04-25T01:33:12.062Z,99.99
2018-04-25T01:34:11.980Z,99.99
2018-04-25T01:36:05.336Z,99.99
2018-04-25T01:37:05.254Z,99.99
2018-04-25T01:38:58.529Z,99.99
2018-04-25T01:39:58.464Z,99.99
2018-04-25T01:41:51.757Z,99.62
2018-04-25T01:42:51.675Z,99.99
2018-04-25T01:44:44.950Z,99.99
2018-04-25T01:45:44.885Z,99.90
2018-04-25T01:47:38.170Z,99.24
2018-04-25T01:48:38.088Z,99.52
2018-04-25T01:50:31.362Z,99.43
2018-04-25T01:51:31.298Z,99.33
2018-04-25T01:53:24.591Z,99.52
2018-04-25T01:54:24.509Z,99.43
2018-04-25T01:56:17.803Z,99.71
2018-04-25T01:57:17.721Z,98.75
2018-04-25T01:59:10.998Z,98.47
2018-04-25T02:00:10.933Z,98.95
2018-04-25T02:02:04.233Z,97.71
2018-04-25T02:03:04.145Z,97.52
2018-04-25T02:04:57.419Z,97.80
2018-04-25T02:05:57.354Z,97.80
2018-04-25T02:07:50.764Z,97.80
2018-04-25T02:08:50.568Z,97.80
2018-04-25T02:10:43.950Z,97.52
2018-04-25T02:11:43.779Z,97.13
2018-04-25T02:13:37.072Z,96.94
2018-04-25T02:14:36.990Z,96.70
2018-04-25T02:16:30.283Z,96.70
2018-04-25T02:17:30.202Z,96.94
2018-04-25T02:19:23.478Z,96.51
2018-04-25T02:20:23.411Z,96.03
2018-04-25T02:22:16.704Z,95.75
2018-04-25T02:23:16.621Z,95.84
2018-04-25T02:25:09.896Z,94.89
2018-04-25T02:26:09.834Z,94.41
2018-04-25T02:28:03.128Z,94.70
2018-04-25T02:29:03.045Z,94.31
2018-04-25T02:30:56.429Z,93.16
2018-04-25T02:31:56.257Z,93.07
2018-04-25T02:33:49.553Z,92.97
2018-04-25T02:34:49.470Z,92.63
2018-04-25T02:36:42.766Z,92.88
2018-04-25T02:37:42.677Z,92.69
2018-04-25T02:39:35.955Z,93.55
2018-04-25T02:40:35.890Z,95.22
2018-04-25T02:42:29.185Z,94.70
2018-04-25T02:43:29.101Z,94.89
2018-04-25T02:45:22.482Z,94.45
2018-04-25T02:46:22.320Z,93.50
2018-04-25T02:48:15.611Z,93.50
2018-04-25T02:49:15.532Z,93.30
2018-04-25T02:51:08.908Z,92.35
2018-04-25T02:52:08.739Z,92.35
2018-04-25T02:54:02.033Z,91.68
2018-04-25T02:55:01.951Z,92.35
2018-04-25T02:56:55.246Z,91.39
2018-04-25T02:57:55.165Z,91.58
2018-04-25T02:59:48.438Z,92.35
2018-04-25T03:00:48.377Z,91.49
2018-04-25T03:02:41.671Z,91.68
2018-04-25T03:03:41.586Z,92.06
2018-04-25T03:05:34.866Z,90.82
2018-04-25T03:06:34.795Z,91.01
2018-04-25T03:08:28.091Z,91.01
2018-04-25T03:09:28.008Z,91.01
2018-04-25T03:11:21.318Z,91.11
2018-04-25T03:12:21.255Z,91.49
2018-04-25T03:14:14.654Z,91.20
2018-04-25T03:15:14.466Z,91.58
2018-04-25T03:17:07.865Z,90.63
2018-04-25T03:18:07.669Z,91.01
2018-04-25T03:20:00.943Z,91.68
2018-04-25T03:21:00.882Z,91.30
2018-04-25T03:22:54.180Z,91.39
2018-04-25T03:23:54.091Z,91.77
2018-04-25T03:25:47.366Z,91.68
2018-04-25T03:26:47.304Z,91.49
2018-04-25T03:28:40.704Z,91.68
2018-04-25T03:29:40.515Z,91.68
2018-04-25T03:31:33.789Z,92.06
2018-04-25T03:32:33.725Z,92.06
2018-04-25T03:34:27.021Z,92.54
2018-04-25T03:35:26.938Z,92.83
2018-04-25T03:37:20.232Z,92.83
2018-04-25T03:38:20.150Z,92.73
2018-04-25T03:40:13.532Z,92.54
2018-04-25T03:41:13.363Z,92.44
2018-04-25T03:43:06.764Z,92.54
2018-04-25T03:44:06.628Z,92.73
2018-04-25T03:45:59.848Z,92.73
2018-04-25T03:46:59.786Z,93.30
2018-04-25T03:48:53.080Z,93.26
2018-04-25T03:49:52.998Z,92.88
2018-04-25T03:51:46.273Z,92.97
2018-04-25T03:52:46.207Z,92.59
2018-04-25T03:54:39.505Z,93.16
2018-04-25T03:55:39.418Z,92.73
2018-04-25T03:57:32.704Z,92.97
2018-04-25T03:58:32.624Z,92.83
2018-04-25T04:00:25.897Z,92.97
2018-04-25T04:01:25.835Z,92.59
2018-04-25T04:03:19.128Z,93.26
2018-04-25T04:04:19.045Z,93.30
2018-04-25T04:06:12.319Z,93.26
2018-04-25T04:07:12.257Z,92.88
2018-04-25T04:09:05.550Z,92.59
2018-04-25T04:10:05.468Z,92.97
2018-04-25T04:11:58.741Z,92.40
2018-04-25T04:12:58.680Z,92.11
2018-04-25T04:14:52.079Z,92.21
2018-04-25T04:15:51.890Z,92.30
2018-04-25T04:17:45.175Z,92.69
2018-04-25T04:18:45.091Z,92.40
2018-04-25T04:20:38.366Z,92.97
2018-04-25T04:21:38.302Z,92.88
2018-04-25T04:23:31.700Z,93.26
2018-04-25T04:24:31.513Z,93.45
2018-04-25T04:26:24.787Z,92.97
2018-04-25T04:27:24.723Z,92.88
2018-04-25T04:29:18.017Z,93.07
2018-04-25T04:30:17.933Z,92.78
2018-04-25T04:32:11.207Z,91.35
2018-04-25T04:33:11.144Z,91.06
2018-04-25T04:35:04.437Z,89.62
2018-04-25T04:36:04.354Z,89.05
2018-04-25T04:37:57.647Z,89.43
2018-04-25T04:38:57.563Z,89.43
2018-04-25T04:40:50.839Z,88.95
2018-04-25T04:41:50.775Z,88.29
2018-04-25T04:43:44.070Z,87.71
2018-04-25T04:44:43.989Z,86.94
2018-04-25T04:46:37.319Z,87.33
2018-04-25T04:47:37.257Z,87.23
2018-04-25T04:49:30.752Z,87.23
2018-04-25T04:50:30.464Z,86.85
2018-04-25T04:52:23.738Z,87.81
2018-04-25T04:53:23.673Z,87.62
2018-04-25T04:55:16.966Z,88.38
2018-04-25T04:56:16.885Z,88.38
2018-04-25T04:58:10.177Z,89.15
2018-04-25T04:59:10.095Z,89.24
2018-04-25T05:01:03.372Z,90.01
2018-04-25T05:02:03.306Z,90.20
2018-04-25T05:03:56.601Z,90.30
2018-04-25T05:04:56.516Z,90.30
2018-04-25T05:06:49.790Z,89.72
2018-04-25T05:07:49.726Z,89.91
2018-04-25T05:09:43.012Z,90.39
2018-04-25T05:10:42.928Z,90.30
2018-04-25T05:12:36.202Z,89.15
2018-04-25T05:13:36.139Z,88.67
2018-04-25T05:15:30.550Z,89.15
2018-04-25T05:16:30.186Z,89.43
2018-04-25T05:18:23.478Z,89.15
2018-04-25T05:19:23.396Z,88.48
2018-04-25T05:21:16.664Z,88.09
2018-04-25T05:22:16.596Z,88.29
2018-04-25T05:24:09.889Z,88.48
2018-04-25T05:25:09.809Z,88.38
2018-04-25T05:27:03.074Z,88.38
2018-04-25T05:28:03.013Z,88.48
2018-04-25T05:29:56.410Z,88.38
2018-04-25T05:30:56.223Z,88.95
2018-04-25T05:32:49.487Z,89.05
2018-04-25T05:33:49.422Z,88.67
2018-04-25T05:35:42.716Z,88.86
2018-04-25T05:36:42.632Z,88.95
2018-04-25T05:38:35.982Z,89.62
2018-04-25T05:39:35.843Z,90.10
2018-04-25T05:41:29.107Z,93.02
2018-04-25T05:42:29.043Z,95.03
2018-04-25T05:44:22.335Z,99.99
2018-04-25T05:45:22.254Z,99.99
2018-04-25T05:47:15.631Z,99.99
2018-04-25T05:48:15.452Z,99.99
2018-04-25T05:50:08.851Z,99.99
2018-04-25T05:51:08.661Z,99.99
2018-04-25T05:53:01.927Z,99.99
2018-04-25T05:54:01.858Z,99.99
2018-04-25T05:55:55.147Z,99.99
2018-04-25T05:56:55.062Z,99.99
2018-04-25T05:58:48.458Z,99.99
2018-04-25T05:59:48.267Z,99.99
2018-04-25T06:01:41.541Z,99.99
2018-04-25T06:02:41.472Z,99.99
2018-04-25T06:04:35.750Z,99.99
2018-04-25T06:05:35.665Z,99.99
2018-04-25T06:07:29.043Z,99.99
2018-04-25T06:08:28.870Z,99.99
2018-04-25T06:10:22.270Z,99.99
2018-04-25T06:11:22.077Z,99.99
2018-04-25T06:13:15.333Z,99.99
2018-04-25T06:14:15.270Z,99.99
2018-04-25T06:16:08.549Z,99.99
2018-04-25T06:17:08.464Z,99.99
2018-04-25T06:19:01.763Z,99.99
2018-04-25T06:20:01.671Z,99.99
2018-04-25T06:21:54.938Z,99.99
2018-04-25T06:22:54.873Z,99.99
2018-04-25T06:24:48.152Z,99.99
2018-04-25T06:25:48.066Z,99.99
2018-04-25T06:27:41.328Z,99.99
2018-04-25T06:28:41.262Z,99.99
2018-04-25T06:30:34.553Z,99.99
2018-04-25T06:31:34.468Z,99.99
2018-04-25T06:33:27.737Z,99.99
2018-04-25T06:34:27.672Z,99.99
2018-04-25T06:36:20.962Z,99.99
2018-04-25T06:37:20.874Z,99.99
2018-04-25T06:39:14.169Z,99.99
2018-04-25T06:40:14.082Z,99.99
2018-04-25T06:42:07.355Z,99.99
2018-04-25T06:43:07.289Z,99.99
2018-04-25T06:45:00.585Z,99.99
2018-04-25T06:46:00.496Z,99.99
2018-04-25T06:47:53.763Z,99.99
2018-04-25T06:48:53.698Z,99.99
2018-04-25T06:50:47.115Z,99.99
2018-04-25T06:51:46.908Z,99.99
2018-04-25T06:53:40.289Z,99.99
2018-04-25T06:54:40.116Z,99.99
2018-04-25T06:56:33.407Z,99.99
2018-04-25T06:57:33.324Z,99.99
2018-04-25T06:59:26.616Z,97.56
2018-04-25T07:00:26.532Z,98.33
2018-04-25T07:02:19.805Z,99.19
2018-04-25T07:03:19.743Z,99.99
2018-04-25T07:05:13.141Z,99.05
2018-04-25T07:06:12.953Z,97.95
2018-04-25T07:08:06.293Z,98.28
2018-04-25T07:09:06.166Z,99.99
2018-04-25T07:10:59.459Z,99.99
2018-04-25T07:11:59.378Z,99.29
2018-04-25T07:13:52.758Z,99.29
2018-04-25T07:14:52.591Z,98.61
2018-04-25T07:16:45.885Z,96.80
2018-04-25T07:17:45.802Z,96.32
2018-04-25T07:19:39.098Z,98.18
2018-04-25T07:20:39.012Z,99.62
2018-04-25T07:22:32.401Z,98.57
2018-04-25T07:23:32.220Z,99.33
2018-04-25T07:25:25.618Z,98.61
2018-04-25T07:26:25.437Z,95.79
2018-04-25T07:28:18.711Z,97.80
2018-04-25T07:29:18.653Z,97.71
2018-04-25T07:31:11.940Z,99.52
2018-04-25T07:32:11.864Z,98.18
2018-04-25T07:34:05.135Z,97.13
2018-04-25T07:35:05.070Z,95.94
2018-04-25T07:36:58.367Z,94.12
2018-04-25T07:37:58.284Z,94.46
2018-04-25T07:39:51.682Z,95.61
2018-04-25T07:40:51.507Z,95.79
2018-04-25T07:42:44.777Z,97.71
2018-04-25T07:43:44.715Z,97.47
2018-04-25T07:45:38.008Z,98.90
2018-04-25T07:46:37.926Z,98.80
2018-04-25T07:48:31.200Z,97.80
2018-04-25T07:49:31.136Z,97.42
2018-04-25T07:51:24.433Z,99.99
2018-04-25T07:52:24.350Z,99.99
2018-04-25T07:54:17.731Z,99.99
2018-04-25T07:55:17.568Z,99.99
2018-04-25T07:57:10.853Z,99.99
2018-04-25T07:58:10.768Z,99.99
2018-04-25T08:00:04.060Z,99.99
2018-04-25T08:01:03.978Z,99.99
2018-04-25T08:02:57.356Z,99.99
2018-04-25T08:03:57.253Z,99.99
2018-04-25T08:05:50.542Z,99.99
2018-04-25T08:06:50.462Z,99.99
2018-04-25T08:08:43.840Z,99.99
2018-04-25T08:09:43.667Z,99.99
2018-04-25T08:11:36.951Z,99.99
2018-04-25T08:12:36.866Z,99.71
2018-04-25T08:14:30.206Z,97.80
2018-04-25T08:15:30.105Z,97.71
2018-04-25T08:17:23.372Z,97.90
2018-04-25T08:18:23.307Z,98.66
2018-04-25T08:20:16.611Z,97.23
2018-04-25T08:21:16.528Z,97.80
2018-04-25T08:23:09.801Z,95.32
2018-04-25T08:24:09.738Z,94.36
2018-04-25T08:26:03.111Z,92.11
2018-04-25T08:27:02.956Z,89.72
2018-04-25T08:28:56.224Z,87.27
2018-04-25T08:29:56.162Z,85.94
2018-04-25T08:31:49.459Z,87.90
2018-04-25T08:32:49.374Z,87.18
2018-04-25T08:34:42.676Z,87.33
2018-04-25T08:35:42.587Z,88.62
2018-04-25T08:37:35.877Z,90.10
2018-04-25T08:38:35.792Z,89.43
2018-04-25T08:40:29.193Z,89.05
2018-04-25T08:41:29.006Z,87.18
2018-04-25T08:43:22.281Z,85.31
2018-04-25T08:44:22.220Z,84.83
2018-04-25T08:46:15.533Z,84.22
2018-04-25T08:47:15.445Z,83.26
2018-04-25T08:49:08.721Z,80.71
2018-04-25T08:50:08.658Z,79.28
2018-04-25T08:52:02.060Z,75.39
2018-04-25T08:53:01.866Z,75.60
2018-04-25T08:54:55.180Z,76.84
2018-04-25T08:55:55.082Z,76.98
2018-04-25T08:57:48.358Z,73.99
2018-04-25T08:58:48.287Z,73.22
2018-04-25T09:00:41.575Z,70.96
2018-04-25T09:01:41.495Z,69.23
2018-04-25T09:03:34.877Z,68.33
2018-04-25T09:04:34.714Z,68.43
2018-04-25T09:06:28.013Z,71.87
2018-04-25T09:07:27.931Z,72.32
2018-04-25T09:09:21.221Z,68.33
2018-04-25T09:10:21.152Z,68.05
2018-04-25T09:12:14.454Z,68.11
2018-04-25T09:13:14.412Z,65.17
2018-04-25T09:15:07.674Z,65.71
2018-04-25T09:16:07.592Z,66.38
2018-04-25T09:18:00.880Z,66.38
2018-04-25T09:19:00.821Z,65.81
2018-04-25T09:20:54.119Z,65.11
2018-04-25T09:21:54.040Z,67.66
2018-04-25T09:23:47.423Z,67.25
2018-04-25T09:24:47.262Z,66.48
2018-04-25T09:26:40.674Z,65.81
2018-04-25T09:27:40.479Z,67.56
2018-04-25T09:29:33.763Z,66.70
2018-04-25T09:30:33.697Z,69.57
2018-04-25T09:32:27.003Z,66.77
2018-04-25T09:33:26.919Z,66.19
2018-04-25T09:35:20.321Z,66.77
2018-04-25T09:36:20.135Z,65.84
2018-04-25T09:38:13.520Z,64.76
2018-04-25T09:39:13.356Z,63.96
2018-04-25T09:41:06.655Z,62.81
2018-04-25T09:42:06.575Z,63.60
2018-04-25T09:43:59.856Z,69.25
2018-04-25T09:44:59.794Z,70.01
2018-04-25T09:46:53.081Z,71.45
2018-04-25T09:47:53.005Z,70.68
2018-04-25T09:49:46.285Z,69.54
2018-04-25T09:50:46.222Z,67.18
2018-04-25T09:52:39.624Z,67.27
2018-04-25T09:53:39.441Z,67.24
2018-04-25T09:55:32.737Z,68.01
2018-04-25T09:56:32.656Z,67.05
2018-04-25T09:58:26.040Z,66.57
2018-04-25T09:59:25.872Z,67.24
2018-04-25T10:01:19.171Z,67.24
2018-04-25T10:02:19.087Z,66.86
2018-04-25T10:04:12.468Z,67.43
2018-04-25T10:05:12.301Z,67.63
2018-04-25T10:07:05.588Z,67.43
2018-04-25T10:08:05.510Z,66.35
2018-04-25T10:09:58.889Z,67.59
2018-04-25T10:10:58.713Z,68.16
2018-04-25T10:12:52.008Z,68.90
2018-04-25T10:13:51.926Z,68.80
2018-04-25T10:15:45.229Z,69.47
2018-04-25T10:16:45.142Z,70.07
2018-04-25T10:18:38.425Z,70.04
2018-04-25T10:19:38.358Z,71.19
2018-04-25T10:21:31.755Z,71.13
2018-04-25T10:22:31.568Z,71.51
2018-04-25T10:24:24.843Z,72.14
2018-04-25T10:25:24.781Z,72.37
2018-04-25T10:27:18.076Z,71.51
2018-04-25T10:28:17.994Z,71.80
2018-04-25T10:30:11.317Z,71.16
2018-04-25T10:31:11.255Z,70.87
2018-04-25T10:33:04.654Z,71.99
2018-04-25T10:34:04.465Z,71.70
2018-04-25T10:35:57.867Z,72.18
2018-04-25T10:36:57.680Z,71.51
2018-04-25T10:38:51.005Z,71.13
2018-04-25T10:39:50.897Z,71.32
2018-04-25T10:41:44.195Z,71.76
2018-04-25T10:42:44.108Z,72.14
2018-04-25T10:44:37.381Z,72.24
2018-04-25T10:45:37.320Z,72.24
2018-04-25T10:47:30.605Z,72.43
2018-04-25T10:48:30.524Z,72.43
2018-04-25T10:50:23.802Z,72.66
2018-04-25T10:51:23.737Z,72.56
2018-04-25T10:53:17.032Z,71.16
2018-04-25T10:54:16.949Z,72.31
2018-04-25T10:56:10.244Z,73.27
2018-04-25T10:57:10.162Z,72.98
2018-04-25T10:59:03.438Z,74.41
2018-04-25T11:00:03.376Z,72.60
2018-04-25T11:01:56.776Z,72.06
2018-04-25T11:02:56.590Z,72.25
2018-04-25T11:04:49.970Z,75.52
2018-04-25T11:05:49.803Z,75.37
2018-04-25T11:07:43.090Z,73.11
2018-04-25T11:08:43.010Z,72.44
2018-04-25T11:10:36.283Z,72.09
2018-04-25T11:11:36.225Z,72.09
2018-04-25T11:13:29.526Z,72.31
2018-04-25T11:14:29.442Z,74.13
2018-04-25T11:16:22.843Z,73.50
2018-04-25T11:17:22.658Z,73.65
2018-04-25T11:19:15.936Z,73.84
2018-04-25T11:20:15.890Z,73.36
2018-04-25T11:22:09.173Z,73.55
2018-04-25T11:23:09.090Z,72.50
2018-04-25T11:25:02.368Z,70.68
2018-04-25T11:26:02.305Z,70.87
2018-04-25T11:27:55.604Z,71.61
2018-04-25T11:28:55.528Z,72.28
2018-04-25T11:30:48.912Z,73.04
2018-04-25T11:31:48.747Z,72.75
2018-04-25T11:33:42.033Z,73.33
2018-04-25T11:34:41.950Z,73.61
2018-04-25T11:36:35.247Z,74.85
2018-04-25T11:37:35.169Z,75.34
2018-04-25T11:39:28.438Z,74.95
2018-04-25T11:40:28.378Z,76.10
2018-04-25T11:42:21.671Z,77.30
2018-04-25T11:43:21.590Z,79.75
2018-04-25T11:45:14.971Z,79.88
2018-04-25T11:46:14.798Z,79.41
2018-04-25T11:48:08.097Z,79.69
2018-04-25T11:49:08.015Z,79.64
2018-04-25T11:51:01.320Z,79.16
2018-04-25T11:52:01.250Z,77.34
2018-04-25T11:53:54.545Z,76.20
2018-04-25T11:54:54.462Z,76.06
2018-04-25T11:56:47.763Z,76.45
2018-04-25T11:57:47.678Z,76.39
2018-04-25T11:59:40.981Z,76.57
2018-04-25T12:00:40.892Z,76.39
2018-04-25T12:02:34.182Z,75.24
2018-04-25T12:03:34.101Z,76.20
2018-04-25T12:05:27.481Z,76.10
2018-04-25T12:06:27.313Z,76.20
2018-04-25T12:08:20.714Z,76.10
2018-04-25T12:09:20.523Z,76.29
2018-04-25T12:11:13.800Z,74.38
2018-04-25T12:12:13.736Z,75.71
2018-04-25T12:14:07.066Z,75.91
2018-04-25T12:15:06.951Z,77.21
2018-04-25T12:17:00.351Z,78.55
2018-04-25T12:18:00.157Z,77.94
2018-04-25T12:19:53.540Z,77.84
2018-04-25T12:20:53.368Z,78.07
2018-04-25T12:22:46.768Z,76.45
2018-04-25T12:23:46.581Z,77.08
2018-04-25T12:25:39.963Z,77.44
2018-04-25T12:26:39.790Z,76.10
2018-04-25T12:28:33.192Z,74.41
2018-04-25T12:29:33.007Z,74.04
2018-04-25T12:31:26.281Z,72.12
2018-04-25T12:32:26.218Z,72.31
2018-04-25T12:34:19.515Z,72.41
2018-04-25T12:35:19.426Z,72.41
2018-04-25T12:37:12.831Z,73.46
2018-04-25T12:38:12.646Z,72.41
2018-04-25T12:40:06.025Z,74.73
2018-04-25T12:41:05.858Z,75.87
2018-04-25T12:42:59.172Z,75.78
2018-04-25T12:43:59.090Z,76.06
2018-04-25T12:45:52.365Z,75.52
2018-04-25T12:46:52.302Z,74.04
2018-04-25T12:48:45.707Z,73.46
2018-04-25T12:49:45.514Z,71.87
2018-04-25T12:51:38.788Z,71.68
2018-04-25T12:52:38.748Z,70.78
2018-04-25T12:54:32.128Z,71.93
2018-04-25T12:55:31.941Z,72.18
2018-04-25T12:57:25.239Z,73.67
2018-04-25T12:58:25.158Z,74.66
2018-04-25T13:00:18.538Z,72.47
2018-04-25T13:01:18.369Z,73.52
2018-04-25T13:03:11.663Z,73.33
2018-04-25T13:04:11.583Z,74.19
2018-04-25T13:06:04.862Z,74.04
2018-04-25T13:07:04.797Z,72.69
2018-04-25T13:08:58.152Z,71.48
2018-04-25T13:09:58.009Z,69.86
2018-04-25T13:11:51.316Z,68.71
2018-04-25T13:12:51.253Z,67.63
2018-04-25T13:14:44.550Z,69.06
2018-04-25T13:15:44.468Z,68.80
2018-04-25T13:17:37.873Z,68.13
2018-04-25T13:18:37.684Z,67.66
2018-04-25T13:20:31.065Z,67.91
2018-04-25T13:21:30.899Z,68.23
2018-04-25T13:23:24.194Z,66.67
2018-04-25T13:24:24.113Z,67.91
2018-04-25T13:26:17.391Z,68.68
2018-04-25T13:27:17.328Z,68.77
2018-04-25T13:29:10.624Z,68.23
2018-04-25T13:30:10.543Z,67.08
2018-04-25T13:32:03.818Z,66.80
2018-04-25T13:33:03.757Z,65.94
2018-04-25T13:34:57.158Z,66.28
2018-04-25T13:35:57.095Z,66.38
2018-04-25T13:37:50.283Z,66.96
2018-04-25T13:38:50.198Z,65.90
2018-04-25T13:40:43.509Z,66.67
2018-04-25T13:41:43.405Z,67.14
2018-04-25T13:43:36.702Z,67.72
2018-04-25T13:44:36.620Z,68.10
2018-04-25T13:46:30.003Z,67.82
2018-04-25T13:47:29.835Z,67.24
2018-04-25T13:49:23.129Z,67.63
2018-04-25T13:50:23.049Z,67.72
2018-04-25T13:52:16.349Z,67.14
2018-04-25T13:53:16.285Z,68.01
2018-04-25T13:55:09.576Z,67.63
2018-04-25T13:56:09.495Z,67.82
2018-04-25T13:58:02.819Z,68.29
2018-04-25T13:59:02.727Z,67.94
2018-04-25T14:00:56.105Z,67.14
2018-04-25T14:01:55.930Z,68.10
2018-04-25T14:03:49.235Z,68.29
2018-04-25T14:04:49.153Z,67.34
2018-04-25T14:06:42.434Z,67.97
2018-04-25T14:07:42.372Z,68.26
2018-04-25T14:09:35.667Z,68.77
2018-04-25T14:10:35.583Z,68.01
2018-04-25T14:12:28.861Z,67.14
2018-04-25T14:13:28.797Z,67.05
2018-04-25T14:15:22.198Z,67.63
2018-04-25T14:16:22.010Z,68.07
2018-04-25T14:18:15.410Z,67.59
2018-04-25T14:19:15.251Z,68.16
2018-04-25T14:21:08.632Z,69.02
2018-04-25T14:22:08.465Z,68.55
2018-04-25T14:24:01.761Z,69.31
2018-04-25T14:25:01.678Z,69.98
2018-04-25T14:26:55.062Z,69.60
2018-04-25T14:27:54.882Z,69.02
2018-04-25T14:29:48.282Z,68.68
2018-04-25T14:30:48.095Z,67.63
2018-04-25T14:32:41.369Z,66.96
2018-04-25T14:33:41.308Z,67.43
2018-04-25T14:35:34.603Z,66.00
2018-04-25T14:36:34.519Z,65.52
2018-04-25T14:38:27.814Z,65.90
2018-04-25T14:39:27.736Z,66.63
2018-04-25T14:41:22.005Z,66.57
2018-04-25T14:42:21.944Z,65.23
2018-04-25T14:44:15.239Z,63.60
2018-04-25T14:45:15.156Z,64.59
2018-04-25T14:47:08.434Z,64.95
2018-04-25T14:48:08.370Z,65.42
2018-04-25T14:50:01.669Z,65.68
2018-04-25T14:51:01.588Z,65.97
2018-04-25T14:52:54.973Z,66.63
2018-04-25T14:53:54.796Z,66.63
2018-04-25T14:55:48.200Z,66.47
2018-04-25T14:56:48.010Z,66.38
2018-04-25T14:58:41.335Z,66.67
2018-04-25T14:59:41.252Z,66.86
2018-04-25T15:01:34.706Z,66.47
2018-04-25T15:02:34.466Z,66.63
2018-04-25T15:04:27.761Z,66.92
2018-04-25T15:05:27.679Z,67.02
2018-04-25T15:07:20.954Z,67.11
2018-04-25T15:08:20.890Z,66.47
2018-04-25T15:10:14.210Z,66.63
2018-04-25T15:11:14.125Z,66.83
2018-04-25T15:13:07.402Z,68.35
2018-04-25T15:14:07.340Z,68.64
2018-04-25T15:16:00.634Z,68.26
2018-04-25T15:17:00.549Z,67.53
2018-04-25T15:18:53.845Z,66.28
2018-04-25T15:19:53.816Z,65.90
2018-04-25T15:21:47.037Z,66.09
2018-04-25T15:22:46.974Z,65.90
2018-04-25T15:24:40.267Z,66.47
2018-04-25T15:25:40.197Z,67.24
2018-04-25T15:27:33.453Z,66.96
2018-04-25T15:28:33.388Z,67.24
2018-04-25T15:30:26.684Z,66.76
2018-04-25T15:31:26.599Z,67.27
2018-04-25T15:33:19.879Z,66.80
2018-04-25T15:34:19.815Z,66.19
2018-04-25T15:36:13.109Z,66.63
2018-04-25T15:37:13.026Z,65.97
2018-04-25T15:39:06.321Z,66.06
2018-04-25T15:40:06.239Z,65.87
2018-04-25T15:41:59.517Z,64.09
2018-04-25T15:42:59.450Z,63.60
2018-04-25T15:44:52.749Z,64.09
2018-04-25T15:45:52.666Z,64.18
2018-04-25T15:47:46.048Z,65.42
2018-04-25T15:48:45.880Z,65.36
2018-04-25T15:50:39.280Z,66.22
2018-04-25T15:51:39.093Z,64.79
2018-04-25T15:53:32.369Z,65.14
2018-04-25T15:54:32.305Z,64.66
2018-04-25T15:56:25.602Z,65.61
2018-04-25T15:57:25.524Z,65.42
2018-04-25T15:59:18.818Z,65.61
2018-04-25T16:00:18.733Z,65.71
2018-04-25T16:02:12.021Z,65.42
2018-04-25T16:03:11.946Z,64.85
2018-04-25T16:05:05.240Z,64.85
2018-04-25T16:06:05.160Z,65.71
2018-04-25T16:07:58.438Z,65.61
2018-04-25T16:08:58.373Z,66.00
2018-04-25T16:10:51.699Z,64.75
2018-04-25T16:11:51.619Z,64.79
2018-04-25T16:13:44.997Z,64.12
2018-04-25T16:14:44.833Z,64.02
2018-04-25T16:16:38.123Z,62.59
2018-04-25T16:17:38.041Z,62.49
2018-04-25T16:19:31.339Z,62.77
2018-04-25T16:20:31.256Z,62.55
2018-04-25T16:22:24.535Z,63.32
2018-04-25T16:23:24.476Z,63.23
2018-04-25T16:25:17.767Z,62.74
2018-04-25T16:26:17.684Z,62.74
2018-04-25T16:28:10.964Z,63.42
2018-04-25T16:29:10.899Z,63.76
2018-04-25T16:31:04.193Z,64.18
2018-04-25T16:32:04.111Z,64.18
2018-04-25T16:33:57.387Z,64.09
2018-04-25T16:34:57.324Z,63.80
2018-04-25T16:36:50.623Z,64.28
2018-04-25T16:37:50.535Z,64.37
2018-04-25T16:39:43.832Z,64.47
2018-04-25T16:40:43.747Z,62.65
2018-04-25T16:42:37.024Z,61.79
2018-04-25T16:43:36.962Z,61.12
2018-04-25T16:45:30.273Z,60.74
2018-04-25T16:46:30.183Z,61.79
2018-04-25T16:48:23.458Z,62.46
2018-04-25T16:49:23.392Z,62.08
2018-04-25T16:51:16.698Z,61.88
2018-04-25T16:52:16.614Z,62.24
2018-04-25T16:54:09.908Z,62.52
2018-04-25T16:55:09.843Z,62.52
2018-04-25T16:57:03.166Z,61.57
2018-04-25T16:58:03.047Z,61.60
2018-04-25T16:59:56.340Z,60.90
2018-04-25T17:00:56.267Z,61.95
2018-04-25T17:02:49.532Z,61.38
2018-04-25T17:03:49.470Z,61.85
2018-04-25T17:05:42.869Z,62.71
2018-04-25T17:06:42.682Z,62.81
2018-04-25T17:08:35.955Z,63.00
2018-04-25T17:09:35.970Z,63.00
2018-04-25T17:11:29.191Z,62.62
2018-04-25T17:12:29.106Z,63.48
2018-04-25T17:14:22.380Z,63.00
2018-04-25T17:15:22.317Z,62.81
2018-04-25T17:17:15.603Z,63.23
2018-04-25T17:18:15.521Z,63.19
2018-04-25T17:20:08.817Z,64.53
2018-04-25T17:21:08.732Z,63.67
2018-04-25T17:23:02.050Z,63.96
2018-04-25T17:24:01.948Z,63.96
2018-04-25T17:25:55.343Z,64.15
2018-04-25T17:26:55.156Z,64.25
2018-04-25T17:28:48.488Z,63.86
2018-04-25T17:29:48.366Z,63.86
2018-04-25T17:31:41.659Z,63.86
2018-04-25T17:32:41.577Z,64.34
2018-04-25T17:34:34.857Z,64.72
2018-04-25T17:35:34.791Z,64.82
2018-04-25T17:37:28.077Z,64.91
2018-04-25T17:38:27.993Z,64.91
2018-04-25T17:40:21.394Z,66.16
2018-04-25T17:41:21.250Z,66.03
2018-04-25T17:43:14.527Z,66.03
2018-04-25T17:44:14.460Z,66.70
2018-04-25T17:46:07.753Z,67.27
2018-04-25T17:47:07.670Z,67.36
2018-04-25T17:49:00.944Z,67.08
2018-04-25T17:50:00.881Z,67.36
2018-04-25T17:51:54.174Z,66.79
2018-04-25T17:52:54.090Z,66.99
2018-04-25T17:54:47.368Z,67.36
2018-04-25T17:55:47.305Z,67.08
2018-04-25T17:57:40.590Z,67.55
2018-04-25T17:58:40.504Z,67.27
2018-04-25T18:00:33.798Z,67.08
2018-04-25T18:01:33.719Z,67.08
2018-04-25T18:03:27.120Z,67.55
2018-04-25T18:04:26.922Z,67.81
2018-04-25T18:06:20.215Z,68.00
2018-04-25T18:07:20.133Z,68.41
2018-04-25T18:09:13.406Z,68.29
2018-04-25T18:10:13.347Z,68.48
2018-04-25T18:12:06.636Z,68.57
2018-04-25T18:13:06.550Z,68.96
2018-04-25T18:14:59.824Z,69.15
2018-04-25T18:15:59.757Z,69.91
2018-04-25T18:17:53.048Z,70.10
2018-04-25T18:18:52.960Z,70.20
2018-04-25T18:20:46.253Z,70.48
2018-04-25T18:21:46.175Z,70.77
2018-04-25T18:23:39.441Z,71.53
2018-04-25T18:24:39.377Z,71.72
2018-04-25T18:26:32.783Z,71.82
2018-04-25T18:27:32.586Z,72.30
2018-04-25T18:29:25.859Z,73.07
2018-04-25T18:30:25.808Z,72.49
2018-04-25T18:32:19.084Z,72.68
2018-04-25T18:33:19.000Z,73.07
2018-04-25T18:35:12.277Z,73.35